Time;durP1;ratioP1;P1;durP2;ratioP2;P2;SDS_P1;SDS_P2;PMS_P1;PMS_P2;Temp;Humidity;BMP_temperature;BMP_pressure;BME280_temperature;BME280_humidity;BME280_pressure;Samples;Min_cycle;Max_cycle;Signal;HPM_P1;HPM_P2
2023/10/21 00:01:42;;;;;;;14.25;6.97;;;;;;;10.56;100.00;98270.25;5025134;28;20648;-75
2023/10/21 00:04:09;;;;;;;12.60;6.80;;;;;;;10.57;100.00;98271.94;5008563;28;20664;-74
2023/10/21 00:06:36;;;;;;;20.33;7.32;;;;;;;10.61;100.00;98271.72;5023508;28;20553;-75
2023/10/21 00:09:04;;;;;;;15.80;6.38;;;;;;;10.65;100.00;98273.16;5021784;28;20056;-75
2023/10/21 00:11:31;;;;;;;16.27;7.22;;;;;;;10.66;100.00;98273.09;5027834;28;20084;-75
2023/10/21 00:13:58;;;;;;;10.82;6.60;;;;;;;10.68;100.00;98279.06;5023457;28;20052;-75
2023/10/21 00:16:25;;;;;;;14.10;6.82;;;;;;;10.70;100.00;98290.34;5011927;28;20048;-75
2023/10/21 00:18:52;;;;;;;13.70;6.35;;;;;;;10.71;100.00;98291.19;5012009;28;20042;-75
2023/10/21 00:21:20;;;;;;;12.32;6.70;;;;;;;10.70;100.00;98295.59;5007345;28;20057;-75
2023/10/21 00:23:47;;;;;;;11.10;7.35;;;;;;;10.66;100.00;98291.53;5006470;28;20042;-76
2023/10/21 00:26:16;;;;;;;13.45;7.70;;;;;;;10.67;100.00;98301.13;5026388;28;20049;-74
2023/10/21 00:28:49;;;;;;;14.68;8.15;;;;;;;10.66;100.00;98295.94;5027335;28;20049;-74
2023/10/21 00:31:16;;;;;;;14.20;7.40;;;;;;;10.66;100.00;98303.84;5017507;28;20042;-74
2023/10/21 00:33:43;;;;;;;14.88;7.45;;;;;;;10.68;100.00;98299.31;5022416;28;20632;-75
2023/10/21 00:36:11;;;;;;;16.23;8.32;;;;;;;10.69;100.00;98311.53;5019490;28;20041;-74
2023/10/21 00:38:38;;;;;;;17.15;7.80;;;;;;;10.68;100.00;98309.84;5011834;28;20038;-75
2023/10/21 00:41:05;;;;;;;16.13;8.20;;;;;;;10.69;100.00;98314.19;5006038;28;20053;-74
2023/10/21 00:43:40;;;;;;;16.33;7.68;;;;;;;10.69;100.00;98327.34;5018416;28;20552;-75
2023/10/21 00:46:16;;;;;;;13.98;7.68;;;;;;;10.70;100.00;98326.41;5017475;28;20066;-75
2023/10/21 00:48:48;;;;;;;17.05;7.95;;;;;;;10.70;100.00;98329.88;5036804;28;20053;-74
2023/10/21 00:51:15;;;;;;;13.27;7.85;;;;;;;10.69;100.00;98333.44;5017933;28;20064;-76
2023/10/21 00:53:43;;;;;;;16.48;8.23;;;;;;;10.71;100.00;98344.72;5040027;28;20057;-75
2023/10/21 00:56:10;;;;;;;12.80;8.35;;;;;;;10.69;100.00;98340.53;5007359;28;20682;-75
2023/10/21 00:58:38;;;;;;;19.38;8.20;;;;;;;10.70;100.00;98337.78;5011266;28;20105;-75
2023/10/21 01:01:08;;;;;;;13.85;7.88;;;;;;;10.71;100.00;98344.72;5025736;28;20064;-73
2023/10/21 01:03:37;;;;;;;14.00;8.10;;;;;;;10.72;100.00;98353.50;5025361;28;20052;-73
2023/10/21 01:06:05;;;;;;;16.13;8.10;;;;;;;10.73;100.00;98355.19;5023575;28;20615;-73
2023/10/21 01:08:43;;;;;;;13.65;7.85;;;;;;;10.74;100.00;98354.19;5009721;28;20044;-74
2023/10/21 01:11:11;;;;;;;19.05;9.50;;;;;;;10.76;100.00;98351.47;5006113;28;20084;-73
2023/10/21 01:13:39;;;;;;;14.00;8.75;;;;;;;10.77;100.00;98366.34;5015796;28;20038;-73
2023/10/21 01:16:06;;;;;;;18.48;9.80;;;;;;;10.77;100.00;98375.06;5021444;28;20046;-74
2023/10/21 01:18:34;;;;;;;16.73;9.52;;;;;;;10.80;100.00;98366.97;5007183;28;20052;-73
2023/10/21 01:21:02;;;;;;;17.33;9.90;;;;;;;10.85;100.00;98364.00;5038026;28;20049;-73
2023/10/21 01:23:32;;;;;;;13.48;8.95;;;;;;;10.91;100.00;98373.28;5011029;28;20096;-74
2023/10/21 01:26:00;;;;;;;15.07;9.73;;;;;;;10.96;100.00;98376.41;5026647;28;20050;-74
2023/10/21 01:28:28;;;;;;;16.73;9.23;;;;;;;11.01;100.00;98376.94;5025218;28;20046;-74
2023/10/21 01:30:56;;;;;;;18.83;10.05;;;;;;;11.04;100.00;98379.31;5024109;28;20045;-74
2023/10/21 01:33:24;;;;;;;17.88;9.63;;;;;;;11.06;100.00;98389.78;5013241;28;20529;-74
2023/10/21 01:35:51;;;;;;;17.42;9.82;;;;;;;11.08;100.00;98390.53;5023585;28;20045;-74
2023/10/21 01:38:19;;;;;;;16.40;10.23;;;;;;;11.09;100.00;98394.84;5027277;28;20489;-74
2023/10/21 01:40:49;;;;;;;16.50;8.98;;;;;;;11.12;100.00;98392.84;5028997;28;20045;-75
2023/10/21 01:43:16;;;;;;;17.38;10.10;;;;;;;11.12;100.00;98398.09;5019421;28;20077;-74
2023/10/21 01:45:43;;;;;;;16.67;9.95;;;;;;;11.10;100.00;98386.81;5024895;28;20107;-73
2023/10/21 01:48:11;;;;;;;15.55;9.65;;;;;;;11.08;100.00;98388.72;5024300;28;20054;-74
2023/10/21 01:50:38;;;;;;;17.55;10.00;;;;;;;11.07;100.00;98397.56;5024559;28;20051;-73
2023/10/21 01:53:06;;;;;;;20.08;10.30;;;;;;;11.06;100.00;98389.78;5025582;28;20410;-73
2023/10/21 01:55:34;;;;;;;14.35;9.40;;;;;;;11.06;100.00;98395.06;5024821;28;20115;-73
2023/10/21 01:58:04;;;;;;;16.33;9.43;;;;;;;11.03;100.00;98391.69;5042187;28;20049;-74
2023/10/21 02:00:32;;;;;;;15.00;10.05;;;;;;;11.05;100.00;98391.56;5005015;28;20395;-74
2023/10/21 02:02:59;;;;;;;16.17;9.93;;;;;;;11.03;100.00;98391.69;4991129;28;20103;-74
2023/10/21 02:05:27;;;;;;;17.60;9.50;;;;;;;11.06;100.00;98403.78;5041574;28;20169;-74
2023/10/21 02:07:54;;;;;;;14.77;9.20;;;;;;;11.06;100.00;98405.59;5012047;28;20046;-74
2023/10/21 02:10:21;;;;;;;20.75;9.65;;;;;;;11.06;100.00;98402.97;5036961;28;20053;-76
2023/10/21 02:12:48;;;;;;;17.38;9.95;;;;;;;11.06;100.00;98402.97;5021780;28;20580;-75
2023/10/21 02:15:16;;;;;;;17.60;10.10;;;;;;;11.07;100.00;98404.66;5019712;28;20038;-74
2023/10/21 02:17:46;;;;;;;14.40;9.93;;;;;;;11.08;100.00;98409.81;5022711;28;20073;-77
2023/10/21 02:20:14;;;;;;;13.95;9.88;;;;;;;11.09;100.00;98415.94;5021958;28;20060;-78
2023/10/21 02:22:43;;;;;;;18.83;10.98;;;;;;;11.10;100.00;98418.47;5007973;28;20073;-77
2023/10/21 02:25:12;;;;;;;16.95;10.70;;;;;;;11.11;100.00;98420.16;5005527;28;20042;-77
2023/10/21 02:27:42;;;;;;;14.20;9.95;;;;;;;11.12;100.00;98419.19;5005848;28;20537;-76
2023/10/21 02:30:15;;;;;;;16.92;11.15;;;;;;;11.13;100.00;98428.81;5009422;28;20069;-75
2023/10/21 02:32:45;;;;;;;14.98;10.13;;;;;;;11.14;100.00;98425.19;5009658;28;20065;-78
2023/10/21 02:35:14;;;;;;;16.17;10.48;;;;;;;11.16;100.00;98433.00;5016562;28;20041;-77
2023/10/21 02:37:42;;;;;;;15.02;10.60;;;;;;;11.18;100.00;98439.00;5037670;28;20559;-76
2023/10/21 02:40:15;;;;;;;15.45;10.57;;;;;;;11.19;100.00;98433.63;5014027;28;20057;-76
2023/10/21 02:42:44;;;;;;;17.92;10.80;;;;;;;11.19;100.00;98428.34;5003092;28;20510;-77
2023/10/21 02:45:12;;;;;;;15.45;10.90;;;;;;;11.22;100.00;98437.00;5018945;28;20037;-77
2023/10/21 02:47:40;;;;;;;14.77;10.38;;;;;;;11.22;100.00;98448.38;5020342;28;20533;-75
2023/10/21 02:50:07;;;;;;;16.88;10.40;;;;;;;11.25;100.00;98449.94;5036099;28;20046;-74
2023/10/21 02:52:37;;;;;;;16.83;11.05;;;;;;;11.26;100.00;98457.78;5017520;28;20053;-76
2023/10/21 02:55:06;;;;;;;14.07;9.82;;;;;;;11.27;100.00;98456.81;5009484;28;20057;-76
2023/10/21 02:57:34;;;;;;;18.00;10.60;;;;;;;11.29;100.00;98461.97;5013564;28;20050;-76
2023/10/21 03:00:04;;;;;;;19.55;10.00;;;;;;;11.31;100.00;98468.81;5042007;28;20092;-76
2023/10/21 03:02:32;;;;;;;17.10;9.90;;;;;;;11.31;100.00;98470.63;5010527;28;20124;-76
2023/10/21 03:04:59;;;;;;;15.07;10.13;;;;;;;11.34;100.00;98475.69;5020855;28;20050;-77
2023/10/21 03:07:27;;;;;;;20.98;10.55;;;;;;;11.36;100.00;98481.69;5017204;28;20095;-77
2023/10/21 03:09:54;;;;;;;16.75;10.00;;;;;;;11.37;100.00;98482.53;5008147;28;20069;-78
2023/10/21 03:12:21;;;;;;;14.48;9.88;;;;;;;11.39;100.00;98491.19;5016211;28;20065;-77
2023/10/21 03:14:48;;;;;;;15.00;10.02;;;;;;;11.41;100.00;98489.25;5028373;28;20527;-78
2023/10/21 03:17:15;;;;;;;14.55;9.35;;;;;;;11.42;100.00;98486.53;5025618;28;20053;-76
2023/10/21 03:19:42;;;;;;;14.15;9.52;;;;;;;11.43;100.00;98493.50;5031176;28;20116;-76
2023/10/21 03:22:09;;;;;;;17.05;9.93;;;;;;;11.45;100.00;98491.56;5019648;28;20052;-76
2023/10/21 03:24:36;;;;;;;15.98;10.23;;;;;;;11.46;100.00;98495.91;5050599;28;20052;-75
2023/10/21 03:27:04;;;;;;;13.65;9.15;;;;;;;11.47;100.00;98496.75;5025831;28;20706;-76
2023/10/21 03:29:31;;;;;;;13.88;9.60;;;;;;;11.48;100.00;98496.63;5027477;28;20042;-75
2023/10/21 03:31:58;;;;;;;11.90;9.07;;;;;;;11.49;100.00;98505.41;5027346;28;20045;-76
2023/10/21 03:34:25;;;;;;;13.63;9.70;;;;;;;11.49;100.00;98508.88;5029564;28;20053;-76
2023/10/21 03:36:53;;;;;;;14.95;9.23;;;;;;;11.47;100.00;98508.16;5028548;28;20136;-76
2023/10/21 03:39:21;;;;;;;14.70;8.93;;;;;;;11.53;100.00;98516.59;5045799;28;20171;-76
2023/10/21 03:41:48;;;;;;;14.75;9.23;;;;;;;11.53;100.00;98519.22;5045436;28;20095;-76
2023/10/21 03:44:16;;;;;;;13.35;8.93;;;;;;;11.54;100.00;98520.91;5036298;28;20053;-78
2023/10/21 03:46:43;;;;;;;11.38;8.98;;;;;;;11.54;100.00;98520.91;5026925;28;20107;-78
2023/10/21 03:49:11;;;;;;;11.48;8.52;;;;;;;11.53;100.00;98527.16;5027119;28;20084;-77
2023/10/21 03:51:38;;;;;;;13.50;9.13;;;;;;;11.48;100.00;98523.03;5023875;28;20498;-78
2023/10/21 03:54:05;;;;;;;11.93;8.93;;;;;;;11.48;100.00;98525.66;5022276;28;20103;-76
2023/10/21 03:56:33;;;;;;;12.73;8.50;;;;;;;11.45;100.00;98536.44;5043274;28;20044;-75
2023/10/21 03:59:00;;;;;;;12.75;8.23;;;;;;;11.45;100.00;98532.97;5016508;28;20034;-76
2023/10/21 04:01:27;;;;;;;12.68;8.30;;;;;;;11.45;100.00;98528.50;5007108;28;20038;-76
2023/10/21 04:03:54;;;;;;;12.65;8.27;;;;;;;11.45;100.00;98532.97;5041289;28;20045;-76
2023/10/21 04:06:21;;;;;;;9.77;8.05;;;;;;;11.44;100.00;98537.41;5010855;28;20104;-76
2023/10/21 04:08:48;;;;;;;14.15;8.20;;;;;;;11.42;100.00;98538.44;5020241;28;20065;-76
2023/10/21 04:11:15;;;;;;;12.85;7.80;;;;;;;11.44;100.00;98552.38;5038796;28;20052;-76
2023/10/21 04:13:42;;;;;;;11.52;8.00;;;;;;;11.44;100.00;98547.09;5018365;28;20398;-76
2023/10/21 04:16:09;;;;;;;12.77;7.88;;;;;;;11.44;100.00;98553.22;5026427;28;20130;-76
2023/10/21 04:18:36;;;;;;;11.98;7.45;;;;;;;11.44;100.00;98555.00;5009013;28;20096;-75
2023/10/21 04:21:03;;;;;;;11.80;8.07;;;;;;;11.43;100.00;98553.31;5014578;28;20045;-76
2023/10/21 04:23:31;;;;;;;10.95;7.57;;;;;;;11.43;100.00;98566.50;5022035;28;20069;-76
2023/10/21 04:25:58;;;;;;;14.55;7.63;;;;;;;11.41;100.00;98576.31;5016292;28;20073;-78
2023/10/21 04:28:25;;;;;;;10.27;7.40;;;;;;;11.41;100.00;98581.59;5006535;28;20133;-76
2023/10/21 04:30:52;;;;;;;14.00;8.07;;;;;;;11.42;100.00;98588.56;5009824;28;20061;-78
2023/10/21 04:33:19;;;;;;;12.30;7.90;;;;;;;11.43;100.00;98595.53;5014181;28;20045;-77
2023/10/21 04:35:47;;;;;;;12.25;8.18;;;;;;;11.45;100.00;98604.19;5015531;28;20080;-78
2023/10/21 04:38:14;;;;;;;9.73;7.43;;;;;;;11.45;100.00;98609.47;5022036;28;20038;-76
2023/10/21 04:40:42;;;;;;;12.73;8.05;;;;;;;11.44;100.00;98616.56;5020904;28;20532;-74
2023/10/21 04:43:09;;;;;;;11.30;7.65;;;;;;;11.41;100.00;98615.88;5021417;28;20042;-77
2023/10/21 04:45:36;;;;;;;10.40;8.15;;;;;;;11.39;100.00;98631.84;5021808;28;20045;-76
2023/10/21 04:48:04;;;;;;;12.45;8.10;;;;;;;11.35;100.00;98627.72;5024522;28;20140;-75
2023/10/21 04:50:31;;;;;;;15.27;8.80;;;;;;;11.34;100.00;98632.16;5021831;28;20041;-74
2023/10/21 04:52:59;;;;;;;14.80;8.40;;;;;;;11.32;100.00;98633.22;5022536;28;20049;-75
2023/10/21 04:55:27;;;;;;;14.02;8.57;;;;;;;11.32;100.00;98635.84;5041364;28;20041;-77
2023/10/21 04:57:54;;;;;;;13.68;8.73;;;;;;;11.31;100.00;98627.09;5039562;28;20037;-79
2023/10/21 05:00:21;;;;;;;12.90;8.30;;;;;;;11.32;100.00;98636.69;5040367;28;20045;-77
2023/10/21 05:02:49;;;;;;;11.25;8.23;;;;;;;11.37;100.00;98644.28;5025456;28;20041;-77
2023/10/21 05:05:16;;;;;;;14.70;8.48;;;;;;;11.45;100.00;98646.41;5020891;28;20188;-74
2023/10/21 05:07:43;;;;;;;13.55;8.13;;;;;;;11.50;100.00;98654.81;5025602;28;20045;-75
2023/10/21 05:10:10;;;;;;;11.85;8.07;;;;;;;11.55;100.00;98652.72;5025024;28;20044;-75
2023/10/21 05:12:37;;;;;;;15.20;8.00;;;;;;;11.60;100.00;98655.88;5018602;28;20371;-76
2023/10/21 05:15:05;;;;;;;12.10;7.95;;;;;;;11.64;100.00;98662.66;5006744;28;20758;-75
2023/10/21 05:17:32;;;;;;;15.90;8.50;;;;;;;11.67;100.00;98658.13;5015324;28;20156;-75
2023/10/21 05:19:59;;;;;;;14.98;8.20;;;;;;;11.69;100.00;98658.84;5022220;28;20497;-75
2023/10/21 05:22:26;;;;;;;14.30;7.85;;;;;;;11.71;100.00;98671.00;5016988;28;20033;-75
2023/10/21 05:24:53;;;;;;;14.15;7.82;;;;;;;11.75;100.00;98675.09;5028075;28;20041;-76
2023/10/21 05:27:20;;;;;;;14.93;8.20;;;;;;;11.77;100.00;98675.81;5007256;28;20046;-74
2023/10/21 05:29:47;;;;;;;16.98;7.70;;;;;;;11.77;100.00;98673.19;5021425;28;20045;-74
2023/10/21 05:32:14;;;;;;;14.25;7.55;;;;;;;11.79;100.00;98686.31;5023180;28;20096;-74
2023/10/21 05:34:42;;;;;;;13.35;7.43;;;;;;;11.80;100.00;98690.63;5020584;28;20042;-74
2023/10/21 05:37:09;;;;;;;9.10;7.28;;;;;;;11.81;100.00;98693.16;5006849;28;20042;-75
2023/10/21 05:39:36;;;;;;;11.82;7.43;;;;;;;11.79;100.00;98688.94;5027717;28;20046;-74
2023/10/21 05:42:03;;;;;;;13.30;7.38;;;;;;;11.77;100.00;98696.94;5040397;28;20099;-74
2023/10/21 05:44:31;;;;;;;13.52;7.30;;;;;;;11.75;100.00;98705.94;5017018;28;20525;-75
2023/10/21 05:47:14;;;;;;;13.57;7.47;;;;;;;11.70;100.00;98700.97;5020733;28;20128;-73
2023/10/21 05:49:41;;;;;;;11.75;6.88;;;;;;;11.68;100.00;98702.03;5006135;28;20057;-74
2023/10/21 05:52:09;;;;;;;13.60;7.38;;;;;;;11.65;100.00;98713.63;5008694;28;20138;-75
2023/10/21 05:54:36;;;;;;;13.18;6.68;;;;;;;11.61;100.00;98720.91;5015778;28;20131;-74
2023/10/21 05:57:04;;;;;;;13.63;7.43;;;;;;;11.58;100.00;98729.06;5019935;28;20071;-74
2023/10/21 05:59:31;;;;;;;12.73;6.90;;;;;;;11.57;100.00;98737.06;5027507;28;20048;-74
2023/10/21 06:01:58;;;;;;;14.10;7.03;;;;;;;11.54;100.00;98746.03;5021355;28;20053;-74
2023/10/21 06:04:25;;;;;;;13.70;7.30;;;;;;;11.51;100.00;98735.69;5022086;28;20049;-73
2023/10/21 06:06:56;;;;;;;11.50;7.40;;;;;;;11.50;100.00;98745.41;5047287;28;20038;-76
2023/10/21 06:09:25;;;;;;;10.65;7.10;;;;;;;11.50;100.00;98755.97;5039155;28;20029;-76
2023/10/21 06:11:52;;;;;;;14.35;7.07;;;;;;;11.51;100.00;98762.06;5017654;28;20909;-76
2023/10/21 06:14:21;;;;;;;12.40;7.20;;;;;;;11.50;100.00;98761.22;5006509;28;20045;-76
2023/10/21 06:16:48;;;;;;;13.23;7.43;;;;;;;11.54;100.00;98771.59;5023805;28;20060;-76
2023/10/21 06:19:16;;;;;;;16.48;7.35;;;;;;;11.54;100.00;98774.22;5038791;28;20037;-76
2023/10/21 06:21:43;;;;;;;10.40;6.63;;;;;;;11.53;100.00;98777.81;5039151;28;20340;-76
2023/10/21 06:24:10;;;;;;;12.73;6.90;;;;;;;11.56;100.00;98786.38;5046061;28;20748;-76
2023/10/21 06:26:38;;;;;;;11.18;6.93;;;;;;;11.62;100.00;98787.75;5023068;28;20038;-75
2023/10/21 06:29:05;;;;;;;12.98;6.90;;;;;;;11.71;100.00;98792.41;5042038;28;20087;-75
2023/10/21 06:31:32;;;;;;;13.90;7.30;;;;;;;11.78;100.00;98798.13;5040141;28;20068;-76
2023/10/21 06:33:59;;;;;;;21.00;7.35;;;;;;;11.84;100.00;98792.41;5032292;28;20053;-75
2023/10/21 06:36:27;;;;;;;13.20;7.32;;;;;;;11.92;100.00;98799.81;5027289;28;20041;-75
2023/10/21 06:38:55;;;;;;;10.82;5.90;;;;;;;11.97;100.00;98810.88;5031691;28;20037;-75
2023/10/21 06:41:23;;;;;;;12.50;6.47;;;;;;;12.02;100.00;98811.47;5029801;28;20528;-75
2023/10/21 06:43:51;;;;;;;11.88;5.68;;;;;;;12.08;100.00;98813.66;5026680;28;20734;-75
2023/10/21 06:46:19;;;;;;;15.70;6.63;;;;;;;12.15;100.00;98813.28;5018215;28;20537;-74
2023/10/21 06:48:47;;;;;;;12.07;6.60;;;;;;;12.21;100.00;98812.84;5022891;28;20682;-73
2023/10/21 06:51:14;;;;;;;12.65;6.45;;;;;;;12.28;100.00;98824.66;5025176;28;20069;-73
2023/10/21 06:53:41;;;;;;;14.45;6.47;;;;;;;12.37;100.00;98837.22;5026653;28;20041;-71
2023/10/21 06:56:14;;;;;;;12.35;6.03;;;;;;;12.47;100.00;98831.28;5028421;28;20435;-71
2023/10/21 06:58:44;;;;;;;11.45;5.15;;;;;;;12.54;100.00;98835.22;5028037;28;20037;-71
2023/10/21 07:01:12;;;;;;;11.80;6.75;;;;;;;12.62;100.00;98843.44;5025288;28;20476;-74
2023/10/21 07:03:39;;;;;;;11.02;5.30;;;;;;;12.68;100.00;98850.94;5023720;28;20041;-71
2023/10/21 07:06:06;;;;;;;10.75;5.43;;;;;;;12.74;100.00;98855.81;5014350;28;20518;-71
2023/10/21 07:08:34;;;;;;;8.30;4.88;;;;;;;12.81;100.00;98858.00;5021912;28;20057;-71
2023/10/21 07:11:02;;;;;;;10.82;5.13;;;;;;;12.82;100.00;98867.63;5042852;28;20047;-71
2023/10/21 07:13:30;;;;;;;11.25;4.90;;;;;;;12.82;100.00;98865.81;5028488;28;20579;-71
2023/10/21 07:16:10;;;;;;;5.95;4.07;;;;;;;12.86;100.00;98874.41;5027983;28;20346;-72
2023/10/21 07:18:37;;;;;;;6.47;4.40;;;;;;;12.88;100.00;98880.38;5022125;28;20038;-71
2023/10/21 07:21:08;;;;;;;9.18;4.97;;;;;;;12.90;100.00;98883.78;5025595;28;20121;-71
2023/10/21 07:23:38;;;;;;;9.00;4.55;;;;;;;12.94;100.00;98893.19;5026044;28;20383;-71
2023/10/21 07:26:05;;;;;;;6.72;4.15;;;;;;;12.95;100.00;98897.53;5027490;28;20041;-71
2023/10/21 07:28:33;;;;;;;7.40;3.30;;;;;;;13.01;100.00;98912.97;5024812;28;20129;-71
2023/10/21 07:31:01;;;;;;;6.18;3.20;;;;;;;13.05;100.00;98910.94;5028309;28;20049;-71
2023/10/21 07:33:28;;;;;;;7.30;2.60;;;;;;;13.08;100.00;98921.31;5025805;28;20434;-71
2023/10/21 07:35:55;;;;;;;4.53;2.70;;;;;;;13.11;100.00;98922.88;5025826;28;20037;-71
2023/10/21 07:38:23;;;;;;;4.45;2.38;;;;;;;13.15;100.00;98927.00;5025075;28;20501;-71
2023/10/21 07:40:50;;;;;;;3.90;1.90;;;;;;;13.18;100.00;98924.97;5027661;28;20100;-71
2023/10/21 07:43:17;;;;;;;6.13;1.70;;;;;;;13.27;100.00;98935.84;5052309;28;20052;-71
2023/10/21 07:45:46;;;;;;;5.00;1.65;;;;;;;13.32;100.00;98947.81;5028399;28;20053;-71
2023/10/21 07:48:13;;;;;;;4.68;1.55;;;;;;;13.38;100.00;98948.34;5027871;28;20053;-71
2023/10/21 07:50:41;;;;;;;3.45;1.40;;;;;;;13.42;100.00;98969.19;5027112;28;20033;-71
2023/10/21 07:53:08;;;;;;;3.10;1.23;;;;;;;13.46;100.00;98973.31;5042285;28;20927;-71
2023/10/21 07:55:35;;;;;;;2.65;0.80;;;;;;;13.49;100.00;98972.22;5025172;28;20045;-71
2023/10/21 07:58:02;;;;;;;3.13;0.90;;;;;;;13.52;100.00;98987.91;5027664;28;20119;-72
2023/10/21 08:00:29;;;;;;;1.77;0.57;;;;;;;13.53;100.00;98986.13;5032907;28;20052;-76
2023/10/21 08:02:58;;;;;;;2.10;0.63;;;;;;;13.53;100.00;99002.00;5019316;28;20668;-73
2023/10/21 08:05:27;;;;;;;1.67;0.50;;;;;;;13.52;100.00;99006.44;5037688;28;20056;-73
2023/10/21 08:07:55;;;;;;;2.05;0.68;;;;;;;13.56;100.00;99017.63;5038112;28;20053;-73
2023/10/21 08:10:22;;;;;;;1.92;0.52;;;;;;;13.66;100.00;99024.81;5010172;28;20639;-74
2023/10/21 08:12:49;;;;;;;2.65;0.40;;;;;;;13.77;100.00;99031.97;5011686;28;20100;-73
2023/10/21 08:15:17;;;;;;;1.73;0.50;;;;;;;13.81;100.00;99036.13;5013735;28;20472;-74
2023/10/21 08:17:44;;;;;;;2.33;0.50;;;;;;;13.86;100.00;99038.44;5025240;28;20053;-74
2023/10/21 08:20:12;;;;;;;1.33;0.40;;;;;;;13.87;100.00;99036.59;5016619;28;20041;-74
2023/10/21 08:22:40;;;;;;;2.40;0.43;;;;;;;13.97;100.00;99037.63;5010528;28;20126;-73
2023/10/21 08:25:08;;;;;;;2.17;0.50;;;;;;;14.01;100.00;99043.53;5020829;28;20104;-74
2023/10/21 08:27:36;;;;;;;2.05;0.50;;;;;;;13.97;100.00;99043.78;5028560;28;20065;-75
2023/10/21 08:30:06;;;;;;;2.13;0.40;;;;;;;13.93;100.00;99052.91;5023935;28;20438;-75
2023/10/21 08:32:33;;;;;;;2.20;0.40;;;;;;;13.89;100.00;99062.03;5030015;28;20045;-73
2023/10/21 08:35:00;;;;;;;1.90;0.40;;;;;;;13.84;100.00;99058.03;5040348;28;20044;-74
2023/10/21 08:37:27;;;;;;;1.80;0.55;;;;;;;13.79;100.00;99071.59;5020275;28;20595;-73
2023/10/21 08:39:54;;;;;;;3.83;0.50;;;;;;;13.78;100.00;99075.22;5017779;28;20125;-73
2023/10/21 08:42:27;;;;;;;0.90;0.30;;;;;;;13.77;100.00;99081.47;5039062;28;20049;-75
2023/10/21 08:45:18;;;;;;;1.48;0.50;;;;;;;13.77;100.00;99084.94;5009138;28;20038;-73
2023/10/21 08:47:45;;;;;;;2.90;0.30;;;;;;;13.78;100.00;99096.41;5021373;28;20037;-73
2023/10/21 08:50:13;;;;;;;1.55;0.40;;;;;;;13.77;100.00;99100.00;5027014;28;20079;-73
2023/10/21 08:52:42;;;;;;;2.13;0.45;;;;;;;13.78;100.00;99102.53;5026201;28;20055;-75
2023/10/21 08:55:09;;;;;;;4.05;0.50;;;;;;;13.78;100.00;99120.25;5025849;28;20140;-73
2023/10/21 08:57:36;;;;;;;1.58;0.40;;;;;;;13.76;100.00;99109.72;5015424;28;20076;-73
2023/10/21 09:00:05;;;;;;;2.47;0.50;;;;;;;13.76;100.00;99111.56;5024603;28;20049;-73
2023/10/21 09:02:32;;;;;;;0.95;0.32;;;;;;;13.79;100.00;99119.25;5024347;28;20037;-73
2023/10/21 09:04:59;;;;;;;1.75;0.43;;;;;;;13.78;100.00;99128.19;5017824;28;20047;-73
2023/10/21 09:07:47;;;;;;;2.65;0.47;;;;;;;13.79;100.00;99133.38;5017583;28;20490;-73
2023/10/21 09:10:16;;;;;;;1.02;0.38;;;;;;;13.84;100.00;99148.09;5031114;28;20038;-73
2023/10/21 09:12:43;;;;;;;1.15;0.30;;;;;;;13.89;100.00;99151.25;5027063;28;20076;-72
2023/10/21 09:15:12;;;;;;;1.50;0.57;;;;;;;13.93;100.00;99150.91;5038974;28;20046;-76
2023/10/21 09:17:51;;;;;;;1.95;0.40;;;;;;;13.99;100.00;99149.63;5016669;28;20044;-74
2023/10/21 09:20:22;;;;;;;0.95;0.35;;;;;;;14.06;100.00;99148.22;5024050;28;20569;-75
2023/10/21 09:22:51;;;;;;;2.58;0.40;;;;;;;14.21;100.00;99156.88;5040473;28;20103;-75
2023/10/21 09:25:20;;;;;;;1.33;0.40;;;;;;;14.25;100.00;99155.72;5026175;28;20091;-75
2023/10/21 09:27:54;;;;;;;1.25;0.40;;;;;;;14.33;100.00;99159.59;5026608;28;20037;-75
2023/10/21 09:30:24;;;;;;;2.15;0.50;;;;;;;14.43;100.00;99156.19;5024506;28;20724;-75
2023/10/21 09:33:03;;;;;;;1.40;0.50;;;;;;;14.56;100.00;99164.06;5018253;28;20048;-74
2023/10/21 09:35:32;;;;;;;0.90;0.30;;;;;;;14.70;100.00;99165.72;5023179;28;20045;-74
2023/10/21 09:38:18;;;;;;;3.33;0.47;;;;;;;14.80;100.00;99165.91;5019294;28;20087;-74
2023/10/21 09:40:45;;;;;;;3.88;0.60;;;;;;;14.77;100.00;99168.78;5005031;28;20049;-74
2023/10/21 09:43:13;;;;;;;2.95;0.60;;;;;;;14.68;100.00;99170.28;5014478;28;20041;-74
2023/10/21 09:45:44;;;;;;;2.15;0.40;;;;;;;14.65;100.00;99173.13;5024926;28;20033;-74
2023/10/21 09:48:12;;;;;;;2.63;0.60;;;;;;;14.73;98.98;99175.25;5025840;28;20559;-74
2023/10/21 09:50:51;;;;;;;3.90;0.70;;;;;;;14.87;98.62;99179.53;5022638;28;20041;-74
2023/10/21 09:53:24;;;;;;;3.50;0.52;;;;;;;15.11;97.64;99181.31;5024577;28;20068;-76
2023/10/21 09:55:55;;;;;;;3.60;0.40;;;;;;;15.22;97.39;99178.69;5008975;28;20069;-75
2023/10/21 09:58:26;;;;;;;2.38;0.60;;;;;;;15.34;94.28;99176.91;5016699;28;20046;-73
2023/10/21 10:00:54;;;;;;;2.85;0.65;;;;;;;15.35;94.62;99182.13;5025722;28;20051;-75
2023/10/21 10:03:26;;;;;;;4.28;0.60;;;;;;;15.34;94.76;99196.34;5031348;28;20056;-73
2023/10/21 10:05:53;;;;;;;2.20;0.60;;;;;;;15.28;95.56;99196.78;5023322;28;20041;-73
2023/10/21 10:08:20;;;;;;;2.92;0.55;;;;;;;15.25;92.82;99191.75;5022209;28;20124;-73
2023/10/21 10:10:54;;;;;;;1.98;0.68;;;;;;;15.35;93.33;99197.19;5013935;28;20112;-73
2023/10/21 10:13:23;;;;;;;3.97;0.60;;;;;;;15.48;91.08;99195.28;5020559;28;20046;-74
2023/10/21 10:15:50;;;;;;;3.35;0.57;;;;;;;15.55;88.56;99187.69;5018014;28;20054;-73
2023/10/21 10:18:23;;;;;;;2.17;0.30;;;;;;;15.67;87.46;99191.19;5025507;28;20130;-73
2023/10/21 10:20:52;;;;;;;2.22;0.50;;;;;;;15.69;87.29;99200.72;5026251;28;20045;-73
2023/10/21 10:23:24;;;;;;;3.17;0.75;;;;;;;15.87;85.99;99202.97;5021829;28;20061;-73
2023/10/21 10:25:57;;;;;;;5.55;0.70;;;;;;;15.87;84.88;99216.25;5009362;28;20469;-72
2023/10/21 10:28:25;;;;;;;3.45;0.77;;;;;;;15.79;84.62;99213.28;5006715;28;20163;-73
2023/10/21 10:30:56;;;;;;;4.70;0.70;;;;;;;15.68;82.64;99212.31;5004589;28;20131;-75
2023/10/21 10:33:28;;;;;;;5.53;0.70;;;;;;;15.65;85.32;99225.00;5016222;28;20055;-73
2023/10/21 10:36:00;;;;;;;3.30;0.60;;;;;;;15.71;84.17;99235.16;5022543;28;20041;-73
2023/10/21 10:38:34;;;;;;;5.68;0.60;;;;;;;15.76;81.31;99243.59;5023978;28;20049;-73
2023/10/21 10:41:11;;;;;;;3.05;0.60;;;;;;;15.73;81.58;99233.22;5020526;28;20072;-73
2023/10/21 10:43:41;;;;;;;3.15;0.50;;;;;;;15.69;83.61;99237.09;5024773;28;20147;-73
2023/10/21 10:46:08;;;;;;;5.57;1.02;;;;;;;15.66;82.89;99230.22;5025620;28;20601;-73
2023/10/21 10:48:36;;;;;;;4.07;0.50;;;;;;;15.69;83.96;99237.09;5040512;28;20701;-73
2023/10/21 10:51:27;;;;;;;4.63;0.90;;;;;;;15.92;85.42;99245.13;5024454;28;20144;-73
2023/10/21 10:54:00;;;;;;;3.05;0.50;;;;;;;16.23;83.75;99246.19;5022080;28;20045;-74
2023/10/21 10:56:52;;;;;;;2.58;0.60;;;;;;;16.45;81.44;99247.16;5022744;28;20041;-73
2023/10/21 10:59:20;;;;;;;5.95;0.70;;;;;;;16.46;80.78;99251.50;5009716;28;20127;-73
2023/10/21 11:02:01;;;;;;;2.90;0.75;;;;;;;16.52;82.24;99243.00;5023886;28;20056;-74
2023/10/21 11:04:30;;;;;;;2.33;0.68;;;;;;;16.67;81.28;99246.25;5021964;28;20092;-73
2023/10/21 11:06:57;;;;;;;2.72;0.77;;;;;;;16.81;80.53;99257.59;4987603;28;20145;-73
2023/10/21 11:09:33;;;;;;;3.80;0.90;;;;;;;16.95;80.31;99248.50;5003282;28;20128;-73
2023/10/21 11:12:01;;;;;;;3.20;0.70;;;;;;;17.03;81.13;99243.38;5005350;28;20041;-80
2023/10/21 11:14:38;;;;;;;3.80;0.70;;;;;;;17.11;81.91;99251.56;5005869;28;20462;-73
2023/10/21 11:17:05;;;;;;;3.38;0.70;;;;;;;17.18;79.70;99247.47;5014699;28;20045;-74
2023/10/21 11:19:32;;;;;;;3.53;0.80;;;;;;;17.20;75.72;99256.13;5029600;28;20125;-73
2023/10/21 11:22:00;;;;;;;3.35;0.90;;;;;;;17.17;76.40;99258.22;5020266;28;20160;-74
2023/10/21 11:24:30;;;;;;;3.05;0.70;;;;;;;17.17;76.75;99253.75;5023129;28;20703;-73
2023/10/21 11:26:57;;;;;;;2.95;0.75;;;;;;;17.18;75.34;99259.91;5009228;28;20057;-73
2023/10/21 11:29:25;;;;;;;2.08;0.68;;;;;;;17.14;76.11;99253.16;5027348;28;20045;-74